Time;durP1;ratioP1;P1;durP2;ratioP2;P2;SDS_P1;SDS_P2;PMS_P1;PMS_P2;Temp;Humidity;BMP_temperature;BMP_pressure;BME280_temperature;BME280_humidity;BME280_pressure;Samples;Min_cycle;Max_cycle;Signal;HPM_P1;HPM_P2
2023/01/12 00:01:59;;;;;;;;;;;19.20;50.30;;;;;;5010336;28;20328;-53
2023/01/12 00:04:24;;;;;;;;;;;19.10;50.10;;;;;;5004152;28;19918;-53
2023/01/12 00:06:50;;;;;;;;;;;19.10;50.40;;;;;;5012515;28;19917;-53
2023/01/12 00:09:15;;;;;;;;;;;19.10;50.40;;;;;;5004588;28;20391;-53
2023/01/12 00:11:40;;;;;;;;;;;19.10;50.30;;;;;;5007263;28;20453;-53
2023/01/12 00:14:06;;;;;;;;;;;19.10;50.50;;;;;;5001810;28;19914;-53
2023/01/12 00:16:38;;;;;;;;;;;19.00;50.50;;;;;;5001699;28;19957;-53
2023/01/12 00:19:14;;;;;;;;;;;19.00;50.60;;;;;;5007998;28;20684;-52
2023/01/12 00:21:49;;;;;;;;;;;19.00;50.60;;;;;;5008459;28;19925;-53
2023/01/12 00:24:18;;;;;;;;;;;19.00;50.50;;;;;;4994559;28;19921;-53
2023/01/12 00:26:44;;;;;;;;;;;18.90;50.60;;;;;;5004057;28;20253;-52
2023/01/12 00:29:09;;;;;;;;;;;18.90;50.60;;;;;;5010923;28;19917;-53
2023/01/12 00:31:35;;;;;;;;;;;18.90;50.60;;;;;;5009985;28;19913;-52
2023/01/12 00:34:00;;;;;;;;;;;18.90;50.70;;;;;;5009294;28;19917;-53
2023/01/12 00:36:26;;;;;;;;;;;18.90;50.70;;;;;;5012369;28;19917;-52
2023/01/12 00:38:51;;;;;;;;;;;18.90;50.80;;;;;;5005081;28;19922;-53
2023/01/12 00:46:45;;;;;;;;;;;18.80;50.80;;;;;;5006476;28;19968;-53
2023/01/12 00:49:11;;;;;;;;;;;18.80;50.80;;;;;;5011438;28;19917;-53
2023/01/12 00:51:36;;;;;;;;;;;18.70;50.90;;;;;;4999011;28;19967;-52
2023/01/12 00:54:03;;;;;;;;;;;18.70;50.90;;;;;;5012337;28;19945;-53
2023/01/12 00:56:29;;;;;;;;;;;18.70;50.90;;;;;;4999421;28;19917;-53
2023/01/12 00:58:54;;;;;;;;;;;18.70;50.90;;;;;;4998216;28;19925;-53
2023/01/12 01:01:20;;;;;;;;;;;18.60;50.90;;;;;;4998968;28;19973;-53
2023/01/12 01:03:45;;;;;;;;;;;18.60;51.00;;;;;;5004938;28;19914;-53
2023/01/12 01:06:11;;;;;;;;;;;18.60;51.20;;;;;;5011424;28;19913;-52
2023/01/12 01:08:36;;;;;;;;;;;18.60;51.20;;;;;;5007948;28;19917;-53
2023/01/12 01:11:09;;;;;;;;;;;18.60;51.20;;;;;;4995205;28;20382;-53
2023/01/12 01:13:39;;;;;;;;;;;18.50;51.10;;;;;;4998736;28;19972;-52
2023/01/12 01:16:05;;;;;;;;;;;18.60;51.10;;;;;;5011192;28;19922;-53
2023/01/12 01:18:30;;;;;;;;;;;18.60;51.00;;;;;;4996920;28;19918;-53
2023/01/12 01:20:56;;;;;;;;;;;18.60;51.00;;;;;;4997880;28;19930;-53
2023/01/12 01:23:21;;;;;;;;;;;18.60;50.90;;;;;;5008126;28;19922;-53
2023/01/12 01:25:47;;;;;;;;;;;18.60;50.90;;;;;;4996297;28;19916;-53
2023/01/12 01:28:13;;;;;;;;;;;18.50;50.90;;;;;;5009511;28;20381;-53
2023/01/12 01:30:38;;;;;;;;;;;18.50;51.00;;;;;;4992493;28;20353;-53
2023/01/12 01:33:04;;;;;;;;;;;18.50;51.10;;;;;;4994530;28;19965;-52
2023/01/12 01:35:29;;;;;;;;;;;18.50;51.10;;;;;;4995539;28;19968;-53
2023/01/12 01:37:55;;;;;;;;;;;18.50;51.10;;;;;;5009083;28;19918;-53
2023/01/12 01:40:20;;;;;;;;;;;18.50;51.10;;;;;;5011195;28;19956;-53
2023/01/12 01:42:45;;;;;;;;;;;18.40;51.10;;;;;;5011136;28;19914;-53
2023/01/12 01:45:11;;;;;;;;;;;18.40;51.10;;;;;;5001747;28;19917;-53
2023/01/12 01:47:40;;;;;;;;;;;18.40;51.10;;;;;;4994697;28;19920;-53
2023/01/12 01:50:27;;;;;;;;;;;18.40;51.20;;;;;;4995197;28;20674;-53
2023/01/12 01:52:54;;;;;;;;;;;18.40;51.20;;;;;;5004874;28;19924;-53
2023/01/12 01:55:21;;;;;;;;;;;18.30;51.20;;;;;;4993245;28;20390;-53
2023/01/12 01:57:51;;;;;;;;;;;18.30;51.30;;;;;;5024520;28;19914;-53
2023/01/12 02:00:16;;;;;;;;;;;18.30;51.30;;;;;;4994995;28;19937;-52
2023/01/12 02:02:42;;;;;;;;;;;18.30;51.30;;;;;;4997765;28;20374;-53
2023/01/12 02:05:08;;;;;;;;;;;18.30;51.30;;;;;;5011794;28;20350;-52
2023/01/12 02:07:33;;;;;;;;;;;18.30;51.20;;;;;;5036057;28;19914;-53
2023/01/12 02:09:59;;;;;;;;;;;18.30;51.20;;;;;;4993231;28;20001;-51
2023/01/12 02:18:27;;;;;;;;;;;18.40;50.90;;;;;;5003952;28;20040;-52
2023/01/12 02:20:55;;;;;;;;;;;18.70;50.90;;;;;;5015428;28;19914;-51
2023/01/12 02:23:32;;;;;;;;;;;19.00;50.20;;;;;;4999556;28;19943;-51
2023/01/12 02:26:20;;;;;;;;;;;19.40;49.50;;;;;;5001621;28;20286;-51
2023/01/12 02:29:04;;;;;;;;;;;19.90;48.40;;;;;;4996738;28;20410;-51
2023/01/12 02:31:35;;;;;;;;;;;20.50;47.30;;;;;;5010904;28;21207;-51
2023/01/12 02:34:24;;;;;;;;;;;21.10;46.00;;;;;;5032766;28;20458;-53
2023/01/12 02:36:55;;;;;;;;;;;21.60;45.10;;;;;;5006457;28;19924;-51
2023/01/12 02:39:23;;;;;;;;;;;22.00;44.30;;;;;;5005836;28;19929;-51
2023/01/12 02:44:45;;;;;;;;;;;22.30;43.70;;;;;;5021866;28;19916;-53
2023/01/12 02:47:16;;;;;;;;;;;22.00;44.00;;;;;;5012746;28;19913;-53
2023/01/12 02:49:43;;;;;;;;;;;21.70;44.50;;;;;;5011276;28;20366;-53
2023/01/12 02:52:10;;;;;;;;;;;21.50;45.10;;;;;;5040270;28;19925;-51
2023/01/12 02:54:35;;;;;;;;;;;21.40;45.60;;;;;;4998415;28;20420;-51
2023/01/12 02:57:05;;;;;;;;;;;21.30;45.50;;;;;;5041442;28;19921;-51
2023/01/12 02:59:34;;;;;;;;;;;21.20;45.70;;;;;;5003634;28;20373;-51
2023/01/12 03:02:00;;;;;;;;;;;21.20;45.90;;;;;;5026474;28;19913;-51
2023/01/12 03:04:27;;;;;;;;;;;21.10;46.00;;;;;;5030862;28;19960;-51
2023/01/12 03:06:55;;;;;;;;;;;21.20;45.80;;;;;;4995868;28;19913;-51
2023/01/12 03:09:20;;;;;;;;;;;21.20;45.80;;;;;;5004257;28;20294;-52
2023/01/12 03:11:46;;;;;;;;;;;21.30;45.80;;;;;;5009150;28;19913;-52
2023/01/12 03:14:11;;;;;;;;;;;21.20;45.70;;;;;;5043562;28;19914;-51
2023/01/12 03:16:36;;;;;;;;;;;21.20;45.80;;;;;;4998164;28;19933;-52
2023/01/12 03:19:18;;;;;;;;;;;21.20;45.80;;;;;;5006722;28;20007;-53
2023/01/12 03:21:53;;;;;;;;;;;21.10;46.00;;;;;;5003466;28;19921;-53
2023/01/12 03:24:34;;;;;;;;;;;21.00;46.30;;;;;;5032151;28;19922;-52
2023/01/12 03:27:01;;;;;;;;;;;20.90;46.50;;;;;;5013783;28;20278;-51
2023/01/12 03:29:40;;;;;;;;;;;20.80;46.70;;;;;;5002194;28;19965;-50
2023/01/12 03:32:05;;;;;;;;;;;20.60;46.90;;;;;;5025620;28;19917;-51
2023/01/12 03:34:31;;;;;;;;;;;20.50;47.30;;;;;;4994794;28;20356;-52
2023/01/12 03:36:59;;;;;;;;;;;20.40;47.40;;;;;;5030409;28;20028;-52
2023/01/12 03:39:27;;;;;;;;;;;20.30;47.70;;;;;;5005813;28;19968;-53
2023/01/12 03:42:13;;;;;;;;;;;20.30;48.00;;;;;;4998342;28;19973;-53
2023/01/12 03:44:40;;;;;;;;;;;20.20;48.10;;;;;;5006408;28;19922;-52
2023/01/12 03:47:08;;;;;;;;;;;20.10;48.20;;;;;;5033605;28;19916;-52
2023/01/12 03:49:37;;;;;;;;;;;20.00;48.30;;;;;;5002001;28;20289;-52
2023/01/12 03:52:02;;;;;;;;;;;20.10;48.40;;;;;;5028016;28;20004;-51
2023/01/12 03:54:28;;;;;;;;;;;20.10;48.30;;;;;;4995077;28;20064;-51
2023/01/12 03:56:53;;;;;;;;;;;20.10;48.20;;;;;;5036231;28;20374;-54
2023/01/12 03:59:19;;;;;;;;;;;20.20;48.10;;;;;;4999237;28;19913;-51
2023/01/12 04:01:45;;;;;;;;;;;20.20;48.00;;;;;;4993785;28;19909;-52
2023/01/12 04:04:10;;;;;;;;;;;20.30;48.00;;;;;;4993687;28;19913;-51
2023/01/12 04:06:36;;;;;;;;;;;20.40;47.90;;;;;;4993463;28;19924;-51
2023/01/12 04:09:01;;;;;;;;;;;20.40;47.70;;;;;;5003950;28;20433;-51
2023/01/12 04:14:11;;;;;;;;;;;20.40;47.90;;;;;;4996650;28;19937;-52
2023/01/12 04:16:36;;;;;;;;;;;20.30;47.70;;;;;;5003910;28;20007;-53
2023/01/12 04:19:02;;;;;;;;;;;20.30;47.90;;;;;;4996495;28;19920;-52
2023/01/12 04:24:11;;;;;;;;;;;20.40;47.80;;;;;;5008962;28;19924;-52
2023/01/12 04:26:36;;;;;;;;;;;20.40;47.80;;;;;;5016022;28;19913;-53
2023/01/12 04:29:02;;;;;;;;;;;20.40;47.50;;;;;;5000890;28;20090;-51
2023/01/12 04:31:27;;;;;;;;;;;20.50;47.40;;;;;;4994472;28;19917;-52
2023/01/12 04:33:52;;;;;;;;;;;20.70;47.40;;;;;;5005743;28;19924;-51
2023/01/12 04:36:18;;;;;;;;;;;20.70;47.00;;;;;;5012401;28;20263;-51
2023/01/12 04:38:43;;;;;;;;;;;20.70;46.90;;;;;;5010632;28;20266;-53
2023/01/12 04:41:09;;;;;;;;;;;20.70;46.80;;;;;;5005320;28;19914;-52
2023/01/12 04:43:34;;;;;;;;;;;20.70;46.80;;;;;;5016055;28;19936;-51
2023/01/12 04:46:04;;;;;;;;;;;20.90;46.70;;;;;;5005525;28;19914;-51
2023/01/12 04:48:29;;;;;;;;;;;21.00;46.60;;;;;;4993203;28;19914;-53
2023/01/12 04:50:57;;;;;;;;;;;21.00;46.50;;;;;;5007927;28;19920;-53
2023/01/12 04:53:23;;;;;;;;;;;20.90;46.60;;;;;;5026589;28;19913;-52
2023/01/12 04:55:48;;;;;;;;;;;20.80;46.80;;;;;;5002527;28;19960;-52
2023/01/12 04:58:14;;;;;;;;;;;20.80;46.90;;;;;;5003959;28;20400;-53
2023/01/12 05:00:39;;;;;;;;;;;20.80;46.90;;;;;;4999837;28;19960;-53
2023/01/12 05:03:05;;;;;;;;;;;20.80;46.80;;;;;;5011138;28;19968;-53
2023/01/12 05:05:30;;;;;;;;;;;20.80;46.80;;;;;;5004555;28;19933;-53
2023/01/12 05:10:46;;;;;;;;;;;20.80;47.00;;;;;;4994308;28;19924;-52
2023/01/12 05:13:11;;;;;;;;;;;20.80;46.90;;;;;;5035110;28;19972;-51
2023/01/12 05:15:37;;;;;;;;;;;20.80;46.80;;;;;;4995568;28;19972;-51
2023/01/12 05:18:02;;;;;;;;;;;20.90;46.90;;;;;;4994011;28;19922;-51
2023/01/12 05:20:28;;;;;;;;;;;20.90;46.80;;;;;;4998697;28;20004;-51
2023/01/12 05:22:54;;;;;;;;;;;20.90;46.80;;;;;;5006900;28;19979;-51
2023/01/12 05:25:19;;;;;;;;;;;20.80;46.70;;;;;;5003717;28;20249;-52
2023/01/12 05:27:44;;;;;;;;;;;20.80;46.90;;;;;;4992067;28;19968;-51
2023/01/12 05:30:10;;;;;;;;;;;20.80;46.80;;;;;;5001447;28;20433;-52
2023/01/12 05:32:39;;;;;;;;;;;20.90;46.80;;;;;;5007730;28;20394;-52
2023/01/12 05:35:05;;;;;;;;;;;20.80;46.80;;;;;;5000771;28;19939;-52
2023/01/12 05:37:30;;;;;;;;;;;20.80;46.80;;;;;;5003955;28;19918;-52
2023/01/12 05:39:56;;;;;;;;;;;20.70;46.90;;;;;;4991555;28;20456;-52
2023/01/12 05:45:06;;;;;;;;;;;20.60;47.30;;;;;;4997015;28;19959;-52
2023/01/12 05:47:32;;;;;;;;;;;20.50;47.50;;;;;;5006627;28;19913;-52
2023/01/12 05:49:57;;;;;;;;;;;20.40;47.60;;;;;;5003112;28;19914;-52
2023/01/12 05:52:23;;;;;;;;;;;20.30;47.80;;;;;;4998874;28;19922;-53
2023/01/12 05:54:48;;;;;;;;;;;20.30;47.90;;;;;;5002069;28;20009;-52
2023/01/12 05:57:14;;;;;;;;;;;20.20;48.10;;;;;;4999317;28;19952;-52
2023/01/12 05:59:39;;;;;;;;;;;20.20;48.20;;;;;;5006082;28;19940;-53
2023/01/12 06:02:05;;;;;;;;;;;20.10;48.30;;;;;;4999825;28;19913;-52
2023/01/12 06:04:30;;;;;;;;;;;20.10;48.40;;;;;;5015516;28;19913;-52
2023/01/12 06:06:55;;;;;;;;;;;20.10;48.40;;;;;;5000171;28;19984;-52
2023/01/12 06:09:21;;;;;;;;;;;20.10;48.30;;;;;;4998225;28;20004;-52
2023/01/12 06:14:31;;;;;;;;;;;20.20;48.10;;;;;;5002270;28;20336;-52
2023/01/12 06:16:56;;;;;;;;;;;20.20;48.00;;;;;;5012250;28;19961;-52
2023/01/12 06:19:21;;;;;;;;;;;20.30;48.00;;;;;;4997165;28;19918;-52
2023/01/12 06:21:47;;;;;;;;;;;20.30;47.90;;;;;;5004833;28;19925;-52
2023/01/12 06:24:12;;;;;;;;;;;20.40;47.90;;;;;;5006474;28;19944;-52
2023/01/12 06:26:38;;;;;;;;;;;20.40;47.70;;;;;;5030926;28;19913;-52
2023/01/12 06:29:05;;;;;;;;;;;20.40;47.70;;;;;;4996239;28;20349;-52
2023/01/12 06:31:31;;;;;;;;;;;20.40;47.60;;;;;;5004431;28;20354;-52
2023/01/12 06:33:56;;;;;;;;;;;20.40;47.70;;;;;;5013579;28;19966;-52
2023/01/12 06:36:22;;;;;;;;;;;20.40;47.70;;;;;;5012319;28;19955;-52
2023/01/12 06:38:47;;;;;;;;;;;20.30;47.80;;;;;;5013331;28;19921;-52
2023/01/12 06:43:57;;;;;;;;;;;20.20;47.90;;;;;;5006512;28;19960;-52
2023/01/12 06:46:22;;;;;;;;;;;20.20;48.10;;;;;;5000118;28;19921;-52
2023/01/12 06:48:48;;;;;;;;;;;20.20;48.10;;;;;;4997132;28;19914;-52
2023/01/12 06:51:13;;;;;;;;;;;20.20;48.10;;;;;;5008177;28;20301;-52
2023/01/12 06:53:38;;;;;;;;;;;20.30;48.00;;;;;;4999073;28;21671;-52
2023/01/12 06:56:04;;;;;;;;;;;20.30;48.00;;;;;;5007543;28;19917;-52
2023/01/12 06:58:29;;;;;;;;;;;20.30;48.00;;;;;;4998998;28;19972;-52
2023/01/12 07:01:01;;;;;;;;;;;20.30;48.00;;;;;;4995053;28;19918;-52
2023/01/12 07:03:27;;;;;;;;;;;20.30;47.90;;;;;;5007877;28;20377;-52
2023/01/12 07:05:52;;;;;;;;;;;20.40;47.60;;;;;;5009367;28;19925;-52
2023/01/12 07:08:18;;;;;;;;;;;20.50;47.60;;;;;;4998436;28;19924;-52
2023/01/12 07:10:44;;;;;;;;;;;20.50;47.50;;;;;;5005294;28;19947;-52
2023/01/12 07:13:09;;;;;;;;;;;20.60;47.40;;;;;;5007108;28;19956;-53
2023/01/12 07:15:35;;;;;;;;;;;20.50;47.50;;;;;;5022651;28;19924;-52
2023/01/12 07:18:00;;;;;;;;;;;20.50;47.40;;;;;;5010979;28;19910;-52
2023/01/12 07:20:27;;;;;;;;;;;20.60;47.40;;;;;;5003626;28;19910;-52
2023/01/12 07:22:55;;;;;;;;;;;20.60;47.30;;;;;;5010900;28;19922;-52
2023/01/12 07:25:23;;;;;;;;;;;20.70;47.20;;;;;;5013401;28;19992;-52
2023/01/12 07:27:53;;;;;;;;;;;20.60;47.10;;;;;;5005293;28;19929;-52
2023/01/12 07:30:20;;;;;;;;;;;20.70;47.10;;;;;;4993075;28;19917;-53
2023/01/12 07:32:45;;;;;;;;;;;20.80;47.00;;;;;;5001100;28;19913;-53
2023/01/12 07:35:11;;;;;;;;;;;20.80;46.80;;;;;;4995845;28;19921;-53
2023/01/12 07:37:36;;;;;;;;;;;20.80;46.70;;;;;;4994477;28;19961;-52
2023/01/12 07:40:02;;;;;;;;;;;20.90;46.70;;;;;;5000235;28;19956;-52
2023/01/12 07:42:27;;;;;;;;;;;20.90;46.50;;;;;;4996906;28;19914;-52
2023/01/12 07:44:52;;;;;;;;;;;21.00;46.40;;;;;;4997957;28;19921;-52
2023/01/12 07:47:18;;;;;;;;;;;21.00;46.40;;;;;;4995359;28;19918;-52
2023/01/12 07:49:43;;;;;;;;;;;21.00;46.40;;;;;;5000077;28;19917;-52
2023/01/12 07:52:09;;;;;;;;;;;21.00;46.30;;;;;;5008005;28;20301;-52
2023/01/12 07:54:36;;;;;;;;;;;20.90;46.70;;;;;;4997190;28;20277;-52
2023/01/12 07:57:02;;;;;;;;;;;20.80;46.80;;;;;;5000584;28;19921;-52
2023/01/12 07:59:27;;;;;;;;;;;20.80;47.00;;;;;;5012057;28;20052;-51
2023/01/12 08:01:55;;;;;;;;;;;20.70;47.00;;;;;;5007520;28;20019;-51
2023/01/12 08:04:21;;;;;;;;;;;20.70;47.10;;;;;;5012643;28;19916;-51
2023/01/12 08:06:47;;;;;;;;;;;20.60;47.20;;;;;;4997626;28;19914;-51
2023/01/12 08:09:12;;;;;;;;;;;20.60;47.20;;;;;;5005632;28;19927;-52
2023/01/12 08:11:38;;;;;;;;;;;20.50;47.30;;;;;;4999638;28;20390;-51
2023/01/12 08:14:04;;;;;;;;;;;20.50;47.40;;;;;;5002527;28;19921;-51
2023/01/12 08:16:39;;;;;;;;;;;20.50;47.40;;;;;;5002288;28;19941;-51
2023/01/12 08:19:15;;;;;;;;;;;20.50;47.30;;;;;;5034395;28;19913;-52
2023/01/12 08:21:44;;;;;;;;;;;20.50;47.30;;;;;;5012410;28;19925;-51
2023/01/12 08:24:11;;;;;;;;;;;20.30;47.50;;;;;;4998854;28;20390;-51
2023/01/12 08:26:37;;;;;;;;;;;20.30;47.70;;;;;;5041394;28;19913;-51
2023/01/12 08:29:05;;;;;;;;;;;20.30;47.80;;;;;;5012993;28;19909;-51
2023/01/12 08:31:31;;;;;;;;;;;20.30;47.90;;;;;;5012649;28;19913;-51
2023/01/12 08:33:56;;;;;;;;;;;20.20;48.40;;;;;;5006831;28;19938;-51
2023/01/12 08:36:22;;;;;;;;;;;20.30;47.90;;;;;;4992644;28;19920;-51
2023/01/12 08:38:47;;;;;;;;;;;20.30;47.90;;;;;;5002765;28;19940;-51
2023/01/12 08:41:31;;;;;;;;;;;20.30;47.80;;;;;;5032052;28;20004;-52
2023/01/12 08:44:03;;;;;;;;;;;20.30;47.80;;;;;;5008877;28;20016;-52
2023/01/12 08:46:29;;;;;;;;;;;20.30;47.70;;;;;;5008385;28;19918;-52
2023/01/12 08:48:54;;;;;;;;;;;20.40;47.80;;;;;;5003080;28;19914;-52
2023/01/12 08:51:19;;;;;;;;;;;20.40;47.80;;;;;;5011019;28;19919;-51
2023/01/12 08:53:45;;;;;;;;;;;20.40;47.70;;;;;;5004829;28;19956;-51
2023/01/12 08:56:11;;;;;;;;;;;20.60;47.50;;;;;;4993023;28;20330;-53
2023/01/12 08:58:36;;;;;;;;;;;21.10;46.70;;;;;;4992874;28;19921;-52
2023/01/12 09:01:08;;;;;;;;;;;21.80;45.40;;;;;;5003407;28;20017;-52
2023/01/12 09:03:34;;;;;;;;;;;22.50;44.20;;;;;;4992805;28;20374;-52
2023/01/12 09:06:06;;;;;;;;;;;23.00;43.00;;;;;;5007910;28;19921;-52
2023/01/12 09:08:32;;;;;;;;;;;23.30;42.50;;;;;;5008631;28;19914;-52
2023/01/12 09:11:00;;;;;;;;;;;23.40;42.20;;;;;;5003013;28;20296;-51
2023/01/12 09:13:26;;;;;;;;;;;23.50;42.10;;;;;;4997755;28;19914;-51
2023/01/12 09:15:51;;;;;;;;;;;23.60;42.00;;;;;;5008920;28;20336;-52
2023/01/12 09:18:17;;;;;;;;;;;23.70;41.90;;;;;;5024471;28;19913;-51
2023/01/12 09:20:42;;;;;;;;;;;23.80;42.00;;;;;;5011460;28;19913;-51
2023/01/12 09:23:07;;;;;;;;;;;23.90;42.00;;;;;;5012319;28;19963;-52
2023/01/12 09:25:33;;;;;;;;;;;24.00;42.00;;;;;;5012129;28;19921;-53
2023/01/12 09:27:58;;;;;;;;;;;24.00;42.00;;;;;;5011814;28;19964;-52
2023/01/12 09:30:24;;;;;;;;;;;24.10;41.90;;;;;;4999350;28;19918;-52
2023/01/12 09:32:50;;;;;;;;;;;24.10;41.80;;;;;;5001377;28;19921;-52
2023/01/12 09:35:18;;;;;;;;;;;24.20;42.50;;;;;;5015419;28;20329;-52
2023/01/12 09:37:45;;;;;;;;;;;24.20;41.80;;;;;;4998211;28;20327;-52
2023/01/12 09:40:12;;;;;;;;;;;24.20;41.90;;;;;;4995808;28;19921;-52
2023/01/12 09:48:10;;;;;;;;;;;24.10;41.90;;;;;;5004763;28;19940;-52
2023/01/12 09:50:39;;;;;;;;;;;24.10;42.10;;;;;;5005545;28;19918;-52
2023/01/12 09:53:05;;;;;;;;;;;24.10;42.10;;;;;;5015228;28;20619;-52
2023/01/12 09:55:51;;;;;;;;;;;24.00;42.20;;;;;;5006974;28;20369;-52
2023/01/12 09:58:26;;;;;;;;;;;24.00;42.30;;;;;;4999070;28;20392;-51
2023/01/12 10:00:55;;;;;;;;;;;23.90;42.30;;;;;;5027544;28;19914;-51
2023/01/12 10:03:30;;;;;;;;;;;23.80;42.60;;;;;;4998339;28;19917;-51
2023/01/12 10:05:57;;;;;;;;;;;23.70;42.80;;;;;;5010924;28;19984;-52
2023/01/12 10:08:28;;;;;;;;;;;23.70;43.00;;;;;;5010244;28;20003;-53
2023/01/12 10:10:57;;;;;;;;;;;23.60;43.00;;;;;;5007538;28;20393;-51
2023/01/12 10:13:22;;;;;;;;;;;23.60;43.20;;;;;;5007277;28;19913;-51
2023/01/12 10:15:48;;;;;;;;;;;23.70;43.10;;;;;;5013275;28;20036;-53
2023/01/12 10:18:22;;;;;;;;;;;23.70;43.00;;;;;;5045510;28;19922;-53
2023/01/12 10:20:48;;;;;;;;;;;23.70;43.00;;;;;;5011785;28;19920;-53
2023/01/12 10:23:15;;;;;;;;;;;23.50;43.10;;;;;;5001849;28;20308;-52
2023/01/12 10:25:45;;;;;;;;;;;23.40;43.40;;;;;;5044247;28;20317;-52
2023/01/12 10:28:13;;;;;;;;;;;23.40;43.80;;;;;;4997200;28;19918;-53
2023/01/12 10:30:39;;;;;;;;;;;23.40;43.40;;;;;;5004849;28;20424;-52
2023/01/12 10:33:15;;;;;;;;;;;23.50;43.20;;;;;;5007957;28;19948;-53
2023/01/12 10:35:49;;;;;;;;;;;23.70;43.00;;;;;;4994575;28;19921;-52
2023/01/12 10:38:22;;;;;;;;;;;23.80;42.80;;;;;;5002921;28;19909;-52
2023/01/12 10:41:06;;;;;;;;;;;23.90;42.60;;;;;;5011876;28;19914;-52
2023/01/12 10:43:32;;;;;;;;;;;24.00;42.40;;;;;;5008723;28;19918;-53
2023/01/12 10:46:08;;;;;;;;;;;24.10;42.40;;;;;;4997496;28;19913;-53
2023/01/12 10:48:34;;;;;;;;;;;24.10;42.30;;;;;;4995277;28;19922;-52
2023/01/12 10:51:00;;;;;;;;;;;24.20;42.40;;;;;;5026829;28;20424;-52
2023/01/12 10:53:27;;;;;;;;;;;24.20;42.40;;;;;;5009287;28;19960;-52
2023/01/12 10:55:52;;;;;;;;;;;24.10;42.40;;;;;;5031246;28;20453;-52
2023/01/12 10:58:21;;;;;;;;;;;24.00;42.50;;;;;;5041578;28;19965;-53
2023/01/12 11:00:47;;;;;;;;;;;24.10;42.50;;;;;;5011027;28;20060;-51
2023/01/12 11:03:25;;;;;;;;;;;24.00;42.50;;;;;;4994955;28;20001;-52
2023/01/12 11:05:50;;;;;;;;;;;24.00;42.50;;;;;;5036638;28;19996;-50
2023/01/12 11:08:25;;;;;;;;;;;24.00;42.70;;;;;;4994909;28;20012;-52
2023/01/12 11:10:50;;;;;;;;;;;24.00;42.80;;;;;;4999265;28;20004;-52
2023/01/12 11:13:23;;;;;;;;;;;23.90;43.00;;;;;;5002116;28;20059;-50
2023/01/12 11:15:51;;;;;;;;;;;23.90;43.20;;;;;;5006697;28;19918;-51
2023/01/12 11:18:25;;;;;;;;;;;23.80;43.10;;;;;;5022356;28;20281;-51
2023/01/12 11:20:55;;;;;;;;;;;23.90;43.10;;;;;;5003836;28;19913;-52
2023/01/12 11:23:29;;;;;;;;;;;23.90;43.10;;;;;;5003173;28;19922;-52
2023/01/12 11:25:54;;;;;;;;;;;24.00;43.20;;;;;;5028740;28;19922;-52
2023/01/12 11:28:20;;;;;;;;;;;24.00;43.10;;;;;;4997371;28;20012;-52
2023/01/12 11:30:59;;;;;;;;;;;24.00;43.20;;;;;;5010083;28;19921;-52
2023/01/12 11:33:38;;;;;;;;;;;24.00;43.20;;;;;;5004872;28;20349;-52
2023/01/12 11:36:05;;;;;;;;;;;24.00;43.20;;;;;;5024521;28;19934;-52
2023/01/12 11:38:32;;;;;;;;;;;24.00;43.30;;;;;;5029242;28;19920;-51
2023/01/12 11:40:57;;;;;;;;;;;24.00;43.20;;;;;;4993261;28;19921;-52
2023/01/12 11:46:25;;;;;;;;;;;24.00;43.20;;;;;;5002498;28;19968;-52
2023/01/12 11:49:09;;;;;;;;;;;24.10;43.30;;;;;;5040253;28;20329;-51
2023/01/12 11:51:35;;;;;;;;;;;24.10;43.30;;;;;;5013171;28;20051;-51
2023/01/12 11:54:00;;;;;;;;;;;24.10;43.30;;;;;;5001660;28;20004;-52
2023/01/12 11:56:44;;;;;;;;;;;24.10;43.40;;;;;;5007449;28;20425;-51
2023/01/12 11:59:42;;;;;;;;;;;24.10;43.40;;;;;;4997042;28;19914;-51
2023/01/12 12:02:10;;;;;;;;;;;24.10;43.40;;;;;;5010949;28;19914;-52
2023/01/12 12:04:42;;;;;;;;;;;24.10;43.40;;;;;;5009650;28;19917;-52
2023/01/12 12:07:11;;;;;;;;;;;24.10;43.40;;;;;;5006411;28;19917;-51
2023/01/12 12:09:43;;;;;;;;;;;24.10;43.40;;;;;;5042321;28;20370;-50
2023/01/12 12:12:08;;;;;;;;;;;24.10;43.50;;;;;;5010151;28;19971;-51
2023/01/12 12:14:38;;;;;;;;;;;24.10;43.50;;;;;;5007749;28;20019;-51
2023/01/12 12:17:27;;;;;;;;;;;24.10;44.20;;;;;;5010370;28;19991;-51
2023/01/12 12:20:13;;;;;;;;;;;24.10;43.70;;;;;;5009011;28;19921;-51
2023/01/12 12:22:38;;;;;;;;;;;24.00;43.60;;;;;;5006833;28;19925;-51
2023/01/12 12:25:04;;;;;;;;;;;24.00;43.70;;;;;;5000195;28;19940;-54
2023/01/12 12:27:29;;;;;;;;;;;24.10;43.60;;;;;;5002072;28;19913;-52
2023/01/12 12:30:13;;;;;;;;;;;24.00;43.60;;;;;;5012438;28;19996;-53
2023/01/12 12:32:51;;;;;;;;;;;24.10;43.80;;;;;;5012311;28;20004;-51
2023/01/12 12:35:26;;;;;;;;;;;24.00;43.70;;;;;;5012711;28;19909;-51
2023/01/12 12:37:52;;;;;;;;;;;24.10;43.80;;;;;;5005793;28;19917;-53
2023/01/12 12:40:24;;;;;;;;;;;24.10;43.70;;;;;;4992480;28;19910;-52
2023/01/12 12:45:48;;;;;;;;;;;24.10;43.50;;;;;;5033359;28;20353;-52
2023/01/12 12:48:14;;;;;;;;;;;24.10;43.70;;;;;;5036600;28;20409;-52
2023/01/12 12:50:58;;;;;;;;;;;24.10;43.70;;;;;;5006718;28;19956;-51
2023/01/12 12:53:23;;;;;;;;;;;24.10;43.80;;;;;;5042733;28;19917;-52
2023/01/12 12:55:49;;;;;;;;;;;24.10;43.90;;;;;;5006024;28;19917;-51
2023/01/12 12:58:21;;;;;;;;;;;24.10;44.00;;;;;;5009143;28;19920;-51
2023/01/12 13:00:46;;;;;;;;;;;24.00;43.90;;;;;;5005420;28;19921;-53
2023/01/12 13:03:31;;;;;;;;;;;24.00;44.00;;;;;;5010268;28;19910;-51
2023/01/12 13:06:15;;;;;;;;;;;24.00;44.20;;;;;;5009612;28;20370;-52
2023/01/12 13:08:40;;;;;;;;;;;24.00;44.30;;;;;;5003031;28;19996;-51
2023/01/12 13:11:06;;;;;;;;;;;23.90;44.50;;;;;;5009911;28;19996;-51
2023/01/12 13:13:34;;;;;;;;;;;23.90;44.40;;;;;;5010868;28;19953;-51
2023/01/12 13:16:20;;;;;;;;;;;24.00;44.40;;;;;;5012038;28;20293;-52
2023/01/12 13:18:49;;;;;;;;;;;24.00;44.40;;;;;;5010227;28;20009;-52
2023/01/12 13:21:23;;;;;;;;;;;24.00;44.30;;;;;;5005666;28;19921;-51
2023/01/12 13:23:50;;;;;;;;;;;24.00;44.30;;;;;;5009086;28;19921;-52
2023/01/12 13:26:35;;;;;;;;;;;24.10;44.40;;;;;;5007177;28;19914;-51
2023/01/12 13:29:19;;;;;;;;;;;24.00;44.30;;;;;;5010448;28;20436;-52
2023/01/12 13:31:45;;;;;;;;;;;24.00;44.40;;;;;;5009979;28;19913;-51
2023/01/12 13:34:29;;;;;;;;;;;24.00;44.30;;;;;;5011645;28;19914;-51
2023/01/12 13:37:04;;;;;;;;;;;24.00;44.40;;;;;;5006521;28;19921;-52
2023/01/12 13:39:29;;;;;;;;;;;24.10;44.40;;;;;;5011279;28;19910;-53
2023/01/12 13:44:39;;;;;;;;;;;24.10;45.10;;;;;;5006467;28;19928;-52
2023/01/12 13:47:08;;;;;;;;;;;24.10;44.50;;;;;;5011314;28;20365;-51
2023/01/12 13:49:34;;;;;;;;;;;24.10;44.60;;;;;;5009414;28;20404;-51
2023/01/12 13:52:07;;;;;;;;;;;24.10;44.70;;;;;;5012751;28;19922;-52
2023/01/12 13:54:33;;;;;;;;;;;24.10;44.80;;;;;;5010300;28;19910;-52
2023/01/12 13:57:00;;;;;;;;;;;24.00;44.90;;;;;;5008421;28;19925;-52
2023/01/12 13:59:26;;;;;;;;;;;24.00;45.10;;;;;;5004283;28;19924;-51
2023/01/12 14:01:52;;;;;;;;;;;24.00;45.00;;;;;;5006844;28;20421;-52
2023/01/12 14:04:44;;;;;;;;;;;24.00;45.10;;;;;;5009474;28;19953;-52
2023/01/12 14:07:21;;;;;;;;;;;24.00;45.10;;;;;;5008207;28;19972;-52
2023/01/12 14:09:59;;;;;;;;;;;24.00;45.10;;;;;;5010914;28;19917;-51
2023/01/12 14:12:28;;;;;;;;;;;24.10;45.10;;;;;;5010108;28;19914;-52
2023/01/12 14:17:48;;;;;;;;;;;24.10;45.10;;;;;;5016276;28;19967;-53
2023/01/12 14:20:15;;;;;;;;;;;24.00;45.20;;;;;;5010280;28;19957;-53
2023/01/12 14:22:40;;;;;;;;;;;24.00;45.20;;;;;;5013684;28;19979;-54
2023/01/12 14:25:11;;;;;;;;;;;24.00;45.30;;;;;;5013097;28;20008;-53
2023/01/12 14:27:37;;;;;;;;;;;24.00;45.50;;;;;;5009886;28;19918;-53
2023/01/12 14:30:03;;;;;;;;;;;24.00;45.40;;;;;;5014108;28;19914;-54
2023/01/12 14:32:29;;;;;;;;;;;24.00;45.40;;;;;;5013172;28;19918;-53
2023/01/12 14:34:54;;;;;;;;;;;24.00;45.30;;;;;;5015216;28;19920;-54
2023/01/12 14:37:22;;;;;;;;;;;24.10;45.10;;;;;;5005318;28;19947;-54
2023/01/12 14:39:47;;;;;;;;;;;24.10;45.10;;;;;;5010399;28;20361;-53
2023/01/12 14:47:44;;;;;;;;;;;24.30;44.80;;;;;;5012244;28;19927;-53
2023/01/12 14:50:12;;;;;;;;;;;24.40;44.70;;;;;;5013078;28;19914;-53
2023/01/12 14:52:38;;;;;;;;;;;24.40;44.80;;;;;;5011036;28;19964;-53
2023/01/12 14:55:22;;;;;;;;;;;24.40;44.80;;;;;;5013974;28;19918;-53
2023/01/12 14:57:49;;;;;;;;;;;24.40;44.70;;;;;;5013905;28;20381;-53
2023/01/12 15:00:17;;;;;;;;;;;24.30;44.80;;;;;;5013189;28;19929;-53
2023/01/12 15:02:42;;;;;;;;;;;24.30;45.00;;;;;;5017070;28;20373;-52
2023/01/12 15:05:08;;;;;;;;;;;24.20;45.10;;;;;;5013584;28;19918;-53
2023/01/12 15:07:34;;;;;;;;;;;24.10;45.20;;;;;;5004831;28;19925;-53
2023/01/12 15:10:20;;;;;;;;;;;24.10;45.40;;;;;;5007860;28;19914;-53
2023/01/12 15:12:46;;;;;;;;;;;24.00;45.60;;;;;;5003720;28;19965;-53
2023/01/12 15:15:12;;;;;;;;;;;23.90;45.70;;;;;;5030654;28;19938;-53
2023/01/12 15:25:34;;;;;;;;;;;23.80;45.80;;;;;;5005174;28;19980;-54